Stanton, Michigan
Current Conditions -  °F | °C
As of 3:14 AM on Monday 24 Nov 2014 (Local Time) from KAMN Reporting Station
Moderate Rain Moderate Rain  
Wind Chill:   Ceiling: 400
Heat Index: 10°   Visibility: 7mi
Dew Point: 10°   Wind: 5mph
Humidity: 99%   Direction: 200°SSW
Pressure: 29"   Gusts: NA
Location:  43.29°N, 85.08°W
Report Text: KAMN 240814Z AUTO 20004KT 7SM RA OVC004 10/10 A2900 RMK AO2 T00960095
Loading
Personal Weather Stations






























Interactive Weather Map New forecast layout! Learn more

10-Day Weather Forecast

Advertisements
Track Severe Weather on mobile